Preston, Minnesota
Current Conditions -  °F | °C
As of 9:56 PM on Sunday 23 Nov 2014 (Local Time) from KFKA Reporting Station
Haze Haze  
Wind Chill: 27°   Ceiling: 700
Heat Index: 37°   Visibility: 4mi
Dew Point: 36°   Wind: 16mph
Humidity: 98%   Direction: 320°NW
Pressure: 29.27"   Gusts: 22mph
Location:  43.67°N, 92.08°W
Report Text: KFKA 240356Z AUTO 32014G19KT 4SM BR OVC007 03/02 A2927 RMK AO2 T00250022
Loading
Personal Weather Stations






























Interactive Weather Map New forecast layout! Learn more

10-Day Weather Forecast

Advertisements
Track Severe Weather on mobile